sensor_id;sensor_type;location;lat;lon;timestamp;pressure;altitude;pressure_sealevel;temperature;humidity
67397;BME280;57728;50.448;18.824;2023-03-21T00:00:25;97762.38;;;9.95;76.84
67397;BME280;57728;50.448;18.824;2023-03-21T00:02:27;97827.03;;;10.36;76.77
67397;BME280;57728;50.448;18.824;2023-03-21T00:04:28;97821.84;;;10.34;76.84
67397;BME280;57728;50.448;18.824;2023-03-21T00:06:30;97794.94;;;10.14;77.07
67397;BME280;57728;50.448;18.824;2023-03-21T00:08:32;97817.31;;;10.28;77.12
67397;BME280;57728;50.448;18.824;2023-03-21T00:10:33;97814.22;;;10.24;77.15
67397;BME280;57728;50.448;18.824;2023-03-21T00:12:36;97815.75;;;10.20;77.28
67397;BME280;57728;50.448;18.824;2023-03-21T00:14:37;97815.16;;;10.18;77.19
67397;BME280;57728;50.448;18.824;2023-03-21T00:16:39;97815.59;;;10.15;77.37
67397;BME280;57728;50.448;18.824;2023-03-21T00:18:47;97810.63;;;10.12;77.31
67397;BME280;57728;50.448;18.824;2023-03-21T00:21:00;97789.34;;;9.97;77.49
67397;BME280;57728;50.448;18.824;2023-03-21T00:23:05;97807.34;;;10.10;77.44
67397;BME280;57728;50.448;18.824;2023-03-21T00:25:09;97806.72;;;10.08;77.48
67397;BME280;57728;50.448;18.824;2023-03-21T00:27:10;97782.47;;;9.94;77.43
67397;BME280;57728;50.448;18.824;2023-03-21T00:29:13;97807.34;;;10.10;77.53
67397;BME280;57728;50.448;18.824;2023-03-21T00:31:16;97772.06;;;9.91;77.60
67397;BME280;57728;50.448;18.824;2023-03-21T00:33:17;97768.63;;;9.84;77.45
67397;BME280;57728;50.448;18.824;2023-03-21T00:35:21;97763.41;;;9.83;77.56
67397;BME280;57728;50.448;18.824;2023-03-21T00:37:23;97769.34;;;9.91;77.60
67397;BME280;57728;50.448;18.824;2023-03-21T00:39:25;97814.19;;;10.12;77.57
67397;BME280;57728;50.448;18.824;2023-03-21T00:41:26;97795.97;;;10.13;77.57
67397;BME280;57728;50.448;18.824;2023-03-21T00:43:28;97730.03;;;9.75;77.63
67397;BME280;57728;50.448;18.824;2023-03-21T00:45:30;97758.69;;;9.90;77.63
67397;BME280;57728;50.448;18.824;2023-03-21T00:47:31;97744.00;;;9.79;77.60
67397;BME280;57728;50.448;18.824;2023-03-21T00:49:33;97769.81;;;10.00;77.78
67397;BME280;57728;50.448;18.824;2023-03-21T00:51:36;97791.97;;;10.15;77.78
67397;BME280;57728;50.448;18.824;2023-03-21T00:53:39;97766.41;;;10.05;77.91
67397;BME280;57728;50.448;18.824;2023-03-21T00:55:41;97796.69;;;10.20;77.77
67397;BME280;57728;50.448;18.824;2023-03-21T00:57:43;97730.78;;;9.83;77.67
67397;BME280;57728;50.448;18.824;2023-03-21T00:59:45;97791.88;;;10.22;77.68
67397;BME280;57728;50.448;18.824;2023-03-21T01:01:47;97749.34;;;9.97;77.80
67397;BME280;57728;50.448;18.824;2023-03-21T01:03:48;97788.78;;;10.30;77.77
67397;BME280;57728;50.448;18.824;2023-03-21T01:05:51;97769.00;;;10.23;77.51
67397;BME280;57728;50.448;18.824;2023-03-21T01:08:09;97723.34;;;10.02;77.68
67397;BME280;57728;50.448;18.824;2023-03-21T01:10:12;97735.66;;;10.16;77.40
67397;BME280;57728;50.448;18.824;2023-03-21T01:12:13;97762.19;;;10.32;77.65
67397;BME280;57728;50.448;18.824;2023-03-21T01:14:17;97728.69;;;10.20;77.16
67397;BME280;57728;50.448;18.824;2023-03-21T01:16:20;97749.19;;;10.35;76.99
67397;BME280;57728;50.448;18.824;2023-03-21T01:18:26;97725.38;;;10.18;76.96
67397;BME280;57728;50.448;18.824;2023-03-21T01:20:30;97782.81;;;10.52;76.92
67397;BME280;57728;50.448;18.824;2023-03-21T01:22:31;97787.66;;;10.50;77.03
67397;BME280;57728;50.448;18.824;2023-03-21T01:24:33;97783.25;;;10.49;76.86
67397;BME280;57728;50.448;18.824;2023-03-21T01:26:36;97768.38;;;10.40;76.71
67397;BME280;57728;50.448;18.824;2023-03-21T01:28:40;97774.38;;;10.42;76.89
67397;BME280;57728;50.448;18.824;2023-03-21T01:30:48;97741.72;;;10.18;76.89
67397;BME280;57728;50.448;18.824;2023-03-21T01:32:52;97739.22;;;10.17;77.01
67397;BME280;57728;50.448;18.824;2023-03-21T01:34:53;97768.59;;;10.38;76.99
67397;BME280;57728;50.448;18.824;2023-03-21T01:36:56;97777.59;;;10.39;77.00
67397;BME280;57728;50.448;18.824;2023-03-21T01:38:58;97687.16;;;9.89;76.90
67397;BME280;57728;50.448;18.824;2023-03-21T01:41:00;97711.75;;;10.06;76.75
67397;BME280;57728;50.448;18.824;2023-03-21T01:43:40;97790.13;;;10.40;76.70
67397;BME280;57728;50.448;18.824;2023-03-21T01:49:01;97765.03;;;10.38;76.63
67397;BME280;57728;50.448;18.824;2023-03-21T01:51:31;97769.28;;;10.33;76.76
67397;BME280;57728;50.448;18.824;2023-03-21T01:53:38;97700.41;;;9.86;76.80
67397;BME280;57728;50.448;18.824;2023-03-21T01:55:43;97765.25;;;10.24;76.72
67397;BME280;57728;50.448;18.824;2023-03-21T01:58:09;97766.91;;;10.25;76.87
67397;BME280;57728;50.448;18.824;2023-03-21T02:00:23;97768.44;;;10.21;77.02
67397;BME280;57728;50.448;18.824;2023-03-21T02:02:42;97626.34;;;9.36;76.82
67397;BME280;57728;50.448;18.824;2023-03-21T02:05:13;97768.31;;;10.16;77.01
67397;BME280;57728;50.448;18.824;2023-03-21T02:07:18;97773.41;;;10.12;77.17
67397;BME280;57728;50.448;18.824;2023-03-21T02:09:32;97702.50;;;9.72;77.21
67397;BME280;57728;50.448;18.824;2023-03-21T02:11:40;97775.50;;;10.10;77.17
67397;BME280;57728;50.448;18.824;2023-03-21T02:13:47;97746.38;;;9.87;77.20
67397;BME280;57728;50.448;18.824;2023-03-21T02:21:00;97768.19;;;10.11;77.32
67397;BME280;57728;50.448;18.824;2023-03-21T02:28:44;97761.66;;;10.12;77.33
67397;BME280;57728;50.448;18.824;2023-03-21T02:36:08;97773.84;;;10.09;77.21
67397;BME280;57728;50.448;18.824;2023-03-21T02:38:42;97773.50;;;10.06;77.40
67397;BME280;57728;50.448;18.824;2023-03-21T02:41:00;97708.50;;;9.62;77.29
67397;BME280;57728;50.448;18.824;2023-03-21T02:43:27;97771.50;;;10.01;77.62
67397;BME280;57728;50.448;18.824;2023-03-21T02:45:40;97712.28;;;9.61;77.61
67397;BME280;57728;50.448;18.824;2023-03-21T02:47:58;97769.22;;;9.98;77.49
67397;BME280;57728;50.448;18.824;2023-03-21T02:50:14;97691.56;;;9.48;77.70
67397;BME280;57728;50.448;18.824;2023-03-21T02:52:25;97624.13;;;9.03;77.69
67397;BME280;57728;50.448;18.824;2023-03-21T02:54:33;97766.63;;;9.91;78.12
67397;BME280;57728;50.448;18.824;2023-03-21T02:56:39;97768.25;;;9.92;78.17
67397;BME280;57728;50.448;18.824;2023-03-21T02:58:42;97770.53;;;9.95;78.21
67397;BME280;57728;50.448;18.824;2023-03-21T03:00:47;97751.22;;;9.85;78.10
67397;BME280;57728;50.448;18.824;2023-03-21T03:03:01;97708.75;;;9.60;77.94
67397;BME280;57728;50.448;18.824;2023-03-21T03:05:17;97744.16;;;9.84;78.22
67397;BME280;57728;50.448;18.824;2023-03-21T03:15:48;97747.13;;;9.94;78.13
67397;BME280;57728;50.448;18.824;2023-03-21T03:26:07;97765.53;;;9.80;78.48
67397;BME280;57728;50.448;18.824;2023-03-21T03:28:22;97726.81;;;9.55;78.45
67397;BME280;57728;50.448;18.824;2023-03-21T03:30:30;97725.38;;;9.52;78.57
67397;BME280;57728;50.448;18.824;2023-03-21T03:32:39;97703.47;;;9.35;78.74
67397;BME280;57728;50.448;18.824;2023-03-21T03:34:50;97739.22;;;9.62;78.89
67397;BME280;57728;50.448;18.824;2023-03-21T03:37:04;97761.38;;;9.78;78.90
67397;BME280;57728;50.448;18.824;2023-03-21T03:39:13;97721.94;;;9.57;78.82
67397;BME280;57728;50.448;18.824;2023-03-21T03:41:28;97697.94;;;9.42;78.89
67397;BME280;57728;50.448;18.824;2023-03-21T03:43:40;97742.56;;;9.64;78.88
67397;BME280;57728;50.448;18.824;2023-03-21T03:45:57;97744.81;;;9.68;78.65
67397;BME280;57728;50.448;18.824;2023-03-21T03:48:17;97603.38;;;8.78;78.73
67397;BME280;57728;50.448;18.824;2023-03-21T03:50:49;97757.44;;;9.74;79.11
67397;BME280;57728;50.448;18.824;2023-03-21T03:53:37;97698.50;;;9.32;79.14
67397;BME280;57728;50.448;18.824;2023-03-21T03:55:46;97710.59;;;9.48;79.07
67397;BME280;57728;50.448;18.824;2023-03-21T03:57:52;97735.78;;;9.55;78.97
67397;BME280;57728;50.448;18.824;2023-03-21T03:59:55;97716.63;;;9.50;79.13
67397;BME280;57728;50.448;18.824;2023-03-21T04:02:02;97612.03;;;8.87;78.83
67397;BME280;57728;50.448;18.824;2023-03-21T04:04:04;97734.56;;;9.51;79.12
67397;BME280;57728;50.448;18.824;2023-03-21T04:06:08;97679.09;;;9.28;79.16
67397;BME280;57728;50.448;18.824;2023-03-21T04:08:09;97703.84;;;9.39;79.17
67397;BME280;57728;50.448;18.824;2023-03-21T04:10:16;97741.03;;;9.69;79.01
67397;BME280;57728;50.448;18.824;2023-03-21T04:12:20;97754.25;;;9.77;79.08
67397;BME280;57728;50.448;18.824;2023-03-21T04:14:51;97758.41;;;9.79;79.09
67397;BME280;57728;50.448;18.824;2023-03-21T04:16:52;97762.81;;;9.80;78.99
67397;BME280;57728;50.448;18.824;2023-03-21T04:18:55;97699.97;;;9.46;78.81
67397;BME280;57728;50.448;18.824;2023-03-21T04:20:57;97758.66;;;9.78;79.05
67397;BME280;57728;50.448;18.824;2023-03-21T04:23:03;97692.13;;;9.38;78.97
67397;BME280;57728;50.448;18.824;2023-03-21T04:25:06;97753.31;;;9.71;78.82
67397;BME280;57728;50.448;18.824;2023-03-21T04:27:09;97750.25;;;9.68;79.10
67397;BME280;57728;50.448;18.824;2023-03-21T04:29:21;97757.19;;;9.63;79.18
67397;BME280;57728;50.448;18.824;2023-03-21T04:31:53;97696.09;;;9.24;79.34
67397;BME280;57728;50.448;18.824;2023-03-21T04:33:54;97736.72;;;9.49;79.61
67397;BME280;57728;50.448;18.824;2023-03-21T04:35:56;97745.84;;;9.55;79.62
67397;BME280;57728;50.448;18.824;2023-03-21T04:38:02;97745.59;;;9.56;79.75
67397;BME280;57728;50.448;18.824;2023-03-21T04:40:04;97739.78;;;9.53;79.71
67397;BME280;57728;50.448;18.824;2023-03-21T04:42:07;97633.13;;;8.85;79.85
67397;BME280;57728;50.448;18.824;2023-03-21T04:44:11;97723.44;;;9.41;80.01
67397;BME280;57728;50.448;18.824;2023-03-21T04:46:13;97703.47;;;9.35;79.82
67397;BME280;57728;50.448;18.824;2023-03-21T04:48:15;97749.28;;;9.62;79.90
67397;BME280;57728;50.448;18.824;2023-03-21T04:50:20;97751.19;;;9.61;79.86
67397;BME280;57728;50.448;18.824;2023-03-21T04:52:22;97730.91;;;9.45;79.73
67397;BME280;57728;50.448;18.824;2023-03-21T04:54:24;97720.72;;;9.41;79.73
67397;BME280;57728;50.448;18.824;2023-03-21T04:56:28;97705.91;;;9.25;79.64
67397;BME280;57728;50.448;18.824;2023-03-21T04:58:33;97727.22;;;9.40;80.11
67397;BME280;57728;50.448;18.824;2023-03-21T05:00:35;97753.13;;;9.54;80.11
67397;BME280;57728;50.448;18.824;2023-03-21T05:02:40;97751.03;;;9.56;80.05
67397;BME280;57728;50.448;18.824;2023-03-21T05:04:42;97663.88;;;8.97;79.91
67397;BME280;57728;50.448;18.824;2023-03-21T05:06:44;97750.06;;;9.51;80.03
67397;BME280;57728;50.448;18.824;2023-03-21T05:08:47;97720.31;;;9.25;80.05
67397;BME280;57728;50.448;18.824;2023-03-21T05:10:48;97696.88;;;9.12;80.30
67397;BME280;57728;50.448;18.824;2023-03-21T05:12:49;97737.84;;;9.41;80.31
67397;BME280;57728;50.448;18.824;2023-03-21T05:14:52;97760.69;;;9.52;80.31
67397;BME280;57728;50.448;18.824;2023-03-21T05:16:54;97713.84;;;9.26;80.30
67397;BME280;57728;50.448;18.824;2023-03-21T05:19:00;97755.75;;;9.49;80.31
67397;BME280;57728;50.448;18.824;2023-03-21T05:21:09;97724.22;;;9.29;80.51
67397;BME280;57728;50.448;18.824;2023-03-21T05:23:12;97760.56;;;9.47;80.63
67397;BME280;57728;50.448;18.824;2023-03-21T05:25:13;97732.28;;;9.36;80.74
67397;BME280;57728;50.448;18.824;2023-03-21T05:27:39;97759.66;;;9.53;80.68
67397;BME280;57728;50.448;18.824;2023-03-21T05:29:45;97701.16;;;9.20;80.45
67397;BME280;57728;50.448;18.824;2023-03-21T05:31:46;97731.00;;;9.39;80.33
67397;BME280;57728;50.448;18.824;2023-03-21T05:33:50;97626.59;;;8.74;80.43
67397;BME280;57728;50.448;18.824;2023-03-21T05:35:53;97738.94;;;9.40;80.44
67397;BME280;57728;50.448;18.824;2023-03-21T05:37:55;97693.69;;;9.16;80.36
67397;BME280;57728;50.448;18.824;2023-03-21T05:39:59;97708.25;;;9.21;80.43
67397;BME280;57728;50.448;18.824;2023-03-21T05:42:05;97769.59;;;9.59;80.52
67397;BME280;57728;50.448;18.824;2023-03-21T05:44:06;97738.81;;;9.47;80.75
67397;BME280;57728;50.448;18.824;2023-03-21T05:46:10;97752.09;;;9.55;80.52
67397;BME280;57728;50.448;18.824;2023-03-21T05:48:12;97771.50;;;9.71;80.43
67397;BME280;57728;50.448;18.824;2023-03-21T05:50:31;97783.59;;;9.75;80.43
67397;BME280;57728;50.448;18.824;2023-03-21T05:52:43;97757.66;;;9.60;80.24
67397;BME280;57728;50.448;18.824;2023-03-21T05:54:48;97739.19;;;9.51;80.18
67397;BME280;57728;50.448;18.824;2023-03-21T05:56:50;97784.78;;;9.79;80.13
67397;BME280;57728;50.448;18.824;2023-03-21T05:59:05;97788.94;;;9.81;80.20
67397;BME280;57728;50.448;18.824;2023-03-21T06:01:12;97553.16;;;8.38;80.04
67397;BME280;57728;50.448;18.824;2023-03-21T06:03:21;97739.59;;;9.66;79.94
67397;BME280;57728;50.448;18.824;2023-03-21T06:05:37;97786.63;;;9.97;79.97
67397;BME280;57728;50.448;18.824;2023-03-21T06:07:41;97707.28;;;9.46;79.67
67397;BME280;57728;50.448;18.824;2023-03-21T06:09:42;97635.13;;;9.08;79.53
67397;BME280;57728;50.448;18.824;2023-03-21T06:11:48;97790.97;;;9.98;79.26
67397;BME280;57728;50.448;18.824;2023-03-21T06:14:15;97709.53;;;9.49;79.33
67397;BME280;57728;50.448;18.824;2023-03-21T06:16:18;97783.53;;;9.93;79.33
67397;BME280;57728;50.448;18.824;2023-03-21T06:18:20;97787.91;;;9.94;79.50
67397;BME280;57728;50.448;18.824;2023-03-21T06:20:33;97734.03;;;9.61;79.29
67397;BME280;57728;50.448;18.824;2023-03-21T06:22:41;97783.84;;;9.85;79.16
67397;BME280;57728;50.448;18.824;2023-03-21T06:24:43;97776.88;;;9.77;79.32
67397;BME280;57728;50.448;18.824;2023-03-21T06:26:45;97785.03;;;9.77;79.03
67397;BME280;57728;50.448;18.824;2023-03-21T06:28:49;97754.47;;;9.63;78.96
67397;BME280;57728;50.448;18.824;2023-03-21T06:30:52;97801.81;;;9.86;78.94
67397;BME280;57728;50.448;18.824;2023-03-21T06:32:58;97785.25;;;9.76;79.07
67397;BME280;57728;50.448;18.824;2023-03-21T06:34:59;97781.19;;;9.67;78.81
67397;BME280;57728;50.448;18.824;2023-03-21T06:37:02;97779.91;;;9.69;79.05
67397;BME280;57728;50.448;18.824;2023-03-21T06:39:06;97798.53;;;9.84;78.83
67397;BME280;57728;50.448;18.824;2023-03-21T06:41:12;97782.16;;;9.72;78.81
67397;BME280;57728;50.448;18.824;2023-03-21T06:43:19;97772.81;;;9.68;78.84
67397;BME280;57728;50.448;18.824;2023-03-21T06:45:21;97791.88;;;9.80;78.81
67397;BME280;57728;50.448;18.824;2023-03-21T06:47:23;97796.13;;;9.76;78.91
67397;BME280;57728;50.448;18.824;2023-03-21T06:49:25;97752.81;;;9.62;78.91
67397;BME280;57728;50.448;18.824;2023-03-21T06:51:28;97655.75;;;9.09;78.73
67397;BME280;57728;50.448;18.824;2023-03-21T06:53:43;97697.56;;;9.38;78.45
67397;BME280;57728;50.448;18.824;2023-03-21T06:55:55;97640.88;;;9.00;78.49
67397;BME280;57728;50.448;18.824;2023-03-21T06:57:57;97813.00;;;10.08;78.66
67397;BME280;57728;50.448;18.824;2023-03-21T07:00:02;97793.94;;;9.96;78.19
67397;BME280;57728;50.448;18.824;2023-03-21T07:02:11;97788.03;;;10.00;78.14
67397;BME280;57728;50.448;18.824;2023-03-21T07:04:21;97790.28;;;10.03;78.14
67397;BME280;57728;50.448;18.824;2023-03-21T07:06:24;97797.66;;;10.14;78.39
67397;BME280;57728;50.448;18.824;2023-03-21T07:08:28;97795.41;;;10.11;78.14
67397;BME280;57728;50.448;18.824;2023-03-21T07:10:30;97813.44;;;10.36;77.90
67397;BME280;57728;50.448;18.824;2023-03-21T07:12:38;97789.16;;;10.22;77.33
67397;BME280;57728;50.448;18.824;2023-03-21T07:14:49;97788.53;;;10.20;77.41
67397;BME280;57728;50.448;18.824;2023-03-21T07:16:51;97814.88;;;10.38;77.64
67397;BME280;57728;50.448;18.824;2023-03-21T07:18:52;97816.41;;;10.46;77.85
67397;BME280;57728;50.448;18.824;2023-03-21T07:20:54;97805.75;;;10.44;77.51
67397;BME280;57728;50.448;18.824;2023-03-21T07:22:57;97819.63;;;10.55;77.19
67397;BME280;57728;50.448;18.824;2023-03-21T07:25:01;97769.88;;;10.24;77.03
67397;BME280;57728;50.448;18.824;2023-03-21T07:27:03;97798.44;;;10.45;77.27
67397;BME280;57728;50.448;18.824;2023-03-21T07:29:04;97799.00;;;10.47;76.97
67397;BME280;57728;50.448;18.824;2023-03-21T07:31:06;97787.66;;;10.38;76.53
67397;BME280;57728;50.448;18.824;2023-03-21T07:33:09;97798.28;;;10.52;76.81
67397;BME280;57728;50.448;18.824;2023-03-21T07:35:14;97783.50;;;10.36;76.20
67397;BME280;57728;50.448;18.824;2023-03-21T07:37:17;97799.00;;;10.47;76.14
67397;BME280;57728;50.448;18.824;2023-03-21T07:39:19;97828.03;;;10.65;76.78
67397;BME280;57728;50.448;18.824;2023-03-21T07:41:28;97820.78;;;10.71;76.59
67397;BME280;57728;50.448;18.824;2023-03-21T07:43:42;97805.88;;;10.61;76.26
67397;BME280;57728;50.448;18.824;2023-03-21T07:45:45;97832.03;;;10.74;76.18
67397;BME280;57728;50.448;18.824;2023-03-21T07:47:48;97799.13;;;10.52;76.05
67397;BME280;57728;50.448;18.824;2023-03-21T07:49:50;97835.72;;;10.68;75.99
67397;BME280;57728;50.448;18.824;2023-03-21T07:51:52;97838.66;;;10.66;76.22
67397;BME280;57728;50.448;18.824;2023-03-21T07:53:53;97820.44;;;10.55;75.96
67397;BME280;57728;50.448;18.824;2023-03-21T07:55:55;97821.84;;;10.46;75.71
67397;BME280;57728;50.448;18.824;2023-03-21T07:57:57;97844.31;;;10.53;75.96
67397;BME280;57728;50.448;18.824;2023-03-21T07:59:58;97841.03;;;10.51;76.05
67397;BME280;57728;50.448;18.824;2023-03-21T08:02:00;97821.00;;;10.33;75.83
67397;BME280;57728;50.448;18.824;2023-03-21T08:04:02;97838.41;;;10.44;76.18
67397;BME280;57728;50.448;18.824;2023-03-21T08:06:03;97829.53;;;10.37;76.13
67397;BME280;57728;50.448;18.824;2023-03-21T08:08:06;97665.19;;;9.37;76.11
67397;BME280;57728;50.448;18.824;2023-03-21T08:10:09;97791.13;;;10.15;75.95
67397;BME280;57728;50.448;18.824;2023-03-21T08:12:11;97846.94;;;10.48;75.97
67397;BME280;57728;50.448;18.824;2023-03-21T08:14:13;97754.31;;;10.01;76.20
67397;BME280;57728;50.448;18.824;2023-03-21T08:16:15;97816.72;;;10.38;75.51
67397;BME280;57728;50.448;18.824;2023-03-21T08:18:17;97823.34;;;10.30;75.30
67397;BME280;57728;50.448;18.824;2023-03-21T08:20:20;97807.34;;;10.22;75.60
67397;BME280;57728;50.448;18.824;2023-03-21T08:22:24;97790.28;;;10.03;75.07
67397;BME280;57728;50.448;18.824;2023-03-21T08:24:26;97853.78;;;10.39;75.00
67397;BME280;57728;50.448;18.824;2023-03-21T08:26:30;97848.34;;;10.39;75.15
67397;BME280;57728;50.448;18.824;2023-03-21T08:28:32;97840.03;;;10.33;75.39
67397;BME280;57728;50.448;18.824;2023-03-21T08:30:34;97850.34;;;10.43;75.02
67397;BME280;57728;50.448;18.824;2023-03-21T08:32:35;97808.78;;;10.24;74.95
67397;BME280;57728;50.448;18.824;2023-03-21T08:34:39;97847.53;;;10.50;74.72
67397;BME280;57728;50.448;18.824;2023-03-21T08:36:42;97821.50;;;10.42;74.41
67397;BME280;57728;50.448;18.824;2023-03-21T08:38:44;97840.22;;;10.51;73.84
67397;BME280;57728;50.448;18.824;2023-03-21T08:40:49;97833.81;;;10.45;74.15
67397;BME280;57728;50.448;18.824;2023-03-21T08:42:51;97835.47;;;10.58;74.12
67397;BME280;57728;50.448;18.824;2023-03-21T08:44:52;97788.13;;;10.35;73.88
67397;BME280;57728;50.448;18.824;2023-03-21T08:46:54;97839.84;;;10.82;73.51
67397;BME280;57728;50.448;18.824;2023-03-21T08:48:55;97809.31;;;10.80;73.40
67397;BME280;57728;50.448;18.824;2023-03-21T08:50:59;97830.94;;;11.11;72.99
67397;BME280;57728;50.448;18.824;2023-03-21T08:53:02;97856.50;;;11.33;72.59
67397;BME280;57728;50.448;18.824;2023-03-21T08:55:03;97812.72;;;11.11;71.39
67397;BME280;57728;50.448;18.824;2023-03-21T08:57:05;97850.22;;;11.33;71.00
67397;BME280;57728;50.448;18.824;2023-03-21T08:59:09;97828.91;;;11.18;70.16
67397;BME280;57728;50.448;18.824;2023-03-21T09:01:12;97839.81;;;11.18;70.12
67397;BME280;57728;50.448;18.824;2023-03-21T09:03:15;97854.84;;;11.21;70.16
67397;BME280;57728;50.448;18.824;2023-03-21T09:05:17;97785.63;;;10.81;70.36
67397;BME280;57728;50.448;18.824;2023-03-21T09:07:20;97825.00;;;11.14;70.06
67397;BME280;57728;50.448;18.824;2023-03-21T09:09:22;97841.97;;;11.16;69.49
67397;BME280;57728;50.448;18.824;2023-03-21T09:11:24;97862.91;;;11.27;69.68
67397;BME280;57728;50.448;18.824;2023-03-21T09:13:25;97873.22;;;11.25;69.29
67397;BME280;57728;50.448;18.824;2023-03-21T09:15:27;97831.78;;;10.99;69.40
67397;BME280;57728;50.448;18.824;2023-03-21T09:17:30;97829.53;;;11.08;69.08
67397;BME280;57728;50.448;18.824;2023-03-21T09:19:32;97868.00;;;11.35;68.95
67397;BME280;57728;50.448;18.824;2023-03-21T09:21:35;97839.00;;;11.17;68.64
67397;BME280;57728;50.448;18.824;2023-03-21T09:23:38;97872.03;;;11.33;68.22
67397;BME280;57728;50.448;18.824;2023-03-21T09:25:40;97868.13;;;11.29;68.35
67397;BME280;57728;50.448;18.824;2023-03-21T09:27:43;97826.00;;;10.96;68.47
67397;BME280;57728;50.448;18.824;2023-03-21T09:29:49;97848.34;;;11.10;68.54
67397;BME280;57728;50.448;18.824;2023-03-21T09:31:50;97856.88;;;11.13;68.23
67397;BME280;57728;50.448;18.824;2023-03-21T09:33:54;97874.53;;;11.23;68.08
67397;BME280;57728;50.448;18.824;2023-03-21T09:35:58;97861.97;;;11.10;67.87
67397;BME280;57728;50.448;18.824;2023-03-21T09:38:00;97886.84;;;11.25;68.17
67397;BME280;57728;50.448;18.824;2023-03-21T09:40:01;97841.63;;;11.00;68.22
67397;BME280;57728;50.448;18.824;2023-03-21T09:42:43;97893.59;;;11.34;68.11
67397;BME280;57728;50.448;18.824;2023-03-21T09:45:26;97891.31;;;11.43;67.99
67397;BME280;57728;50.448;18.824;2023-03-21T09:47:44;97862.06;;;11.39;68.08
67397;BME280;57728;50.448;18.824;2023-03-21T09:52:16;97894.50;;;11.64;67.55
67397;BME280;57728;50.448;18.824;2023-03-21T09:54:28;97857.53;;;11.44;67.58
67397;BME280;57728;50.448;18.824;2023-03-21T09:56:35;97882.13;;;11.73;67.56
67397;BME280;57728;50.448;18.824;2023-03-21T09:58:42;97893.63;;;11.75;67.13
67397;BME280;57728;50.448;18.824;2023-03-21T10:00:51;97874.59;;;11.51;67.07
67397;BME280;57728;50.448;18.824;2023-03-21T10:03:03;97756.63;;;10.75;67.37
67397;BME280;57728;50.448;18.824;2023-03-21T10:05:16;97814.59;;;11.11;67.49
67397;BME280;57728;50.448;18.824;2023-03-21T10:07:24;97843.84;;;11.27;67.21
67397;BME280;57728;50.448;18.824;2023-03-21T10:09:31;97890.81;;;11.58;67.37
67397;BME280;57728;50.448;18.824;2023-03-21T10:11:47;97888.66;;;11.60;67.64
67397;BME280;57728;50.448;18.824;2023-03-21T10:14:32;97864.25;;;11.53;67.64
67397;BME280;57728;50.448;18.824;2023-03-21T10:16:41;97871.94;;;11.68;67.25
67397;BME280;57728;50.448;18.824;2023-03-21T10:18:44;97889.28;;;11.91;67.01
67397;BME280;57728;50.448;18.824;2023-03-21T10:20:50;97853.28;;;11.77;65.98
67397;BME280;57728;50.448;18.824;2023-03-21T10:22:54;97851.91;;;11.92;65.72
67397;BME280;57728;50.448;18.824;2023-03-21T10:24:58;97860.41;;;12.07;65.73
67397;BME280;57728;50.448;18.824;2023-03-21T10:27:02;97858.19;;;12.04;65.42
67397;BME280;57728;50.448;18.824;2023-03-21T10:29:05;97845.47;;;12.10;65.31
67397;BME280;57728;50.448;18.824;2023-03-21T10:31:15;97826.44;;;11.86;64.66
67397;BME280;57728;50.448;18.824;2023-03-21T10:33:34;97693.47;;;10.90;64.59
67397;BME280;57728;50.448;18.824;2023-03-21T10:35:40;97887.00;;;12.12;64.55
67397;BME280;57728;50.448;18.824;2023-03-21T10:37:46;97818.81;;;11.71;64.45
67397;BME280;57728;50.448;18.824;2023-03-21T10:39:51;97850.53;;;11.89;64.10
67397;BME280;57728;50.448;18.824;2023-03-21T10:41:54;97862.59;;;12.05;63.35
67397;BME280;57728;50.448;18.824;2023-03-21T10:44:12;97886.69;;;12.25;63.33
67397;BME280;57728;50.448;18.824;2023-03-21T10:46:19;97831.66;;;11.99;63.20
67397;BME280;57728;50.448;18.824;2023-03-21T10:48:24;97893.97;;;12.36;62.95
67397;BME280;57728;50.448;18.824;2023-03-21T10:50:28;97850.53;;;12.18;62.75
67397;BME280;57728;50.448;18.824;2023-03-21T10:52:32;97863.94;;;12.36;63.11
67397;BME280;57728;50.448;18.824;2023-03-21T10:54:35;97881.91;;;12.66;63.20
67397;BME280;57728;50.448;18.824;2023-03-21T10:56:43;97861.63;;;12.79;62.87
67397;BME280;57728;50.448;18.824;2023-03-21T10:58:56;97843.63;;;12.78;62.26
67397;BME280;57728;50.448;18.824;2023-03-21T11:01:05;97879.25;;;13.05;61.35
67397;BME280;57728;50.448;18.824;2023-03-21T11:03:39;97874.28;;;13.02;60.85
67397;BME280;57728;50.448;18.824;2023-03-21T11:05:44;97876.63;;;12.94;61.13
67397;BME280;57728;50.448;18.824;2023-03-21T11:07:47;97859.25;;;12.83;61.32
67397;BME280;57728;50.448;18.824;2023-03-21T11:10:37;97872.88;;;13.00;61.13
67397;BME280;57728;50.448;18.824;2023-03-21T11:13:26;97872.78;;;13.12;60.88
67397;BME280;57728;50.448;18.824;2023-03-21T11:18:19;97840.41;;;13.03;59.91
67397;BME280;57728;50.448;18.824;2023-03-21T11:20:23;97826.69;;;12.98;59.78
67397;BME280;57728;50.448;18.824;2023-03-21T11:22:38;97826.47;;;12.83;59.85
67397;BME280;57728;50.448;18.824;2023-03-21T11:24:56;97877.59;;;13.04;59.64
67397;BME280;57728;50.448;18.824;2023-03-21T11:27:06;97874.13;;;12.92;59.82
67397;BME280;57728;50.448;18.824;2023-03-21T11:31:40;97820.88;;;12.38;59.32
67397;BME280;57728;50.448;18.824;2023-03-21T11:33:53;97837.72;;;12.35;59.61
67397;BME280;57728;50.448;18.824;2023-03-21T11:36:04;97857.84;;;12.46;59.92
67397;BME280;57728;50.448;18.824;2023-03-21T11:38:38;97858.09;;;12.45;59.98
67397;BME280;57728;50.448;18.824;2023-03-21T11:40:52;97875.47;;;12.55;60.00
67397;BME280;57728;50.448;18.824;2023-03-21T11:45:24;97857.56;;;12.31;59.67
67397;BME280;57728;50.448;18.824;2023-03-21T11:47:30;97821.78;;;11.98;60.22
67397;BME280;57728;50.448;18.824;2023-03-21T11:49:31;97868.81;;;12.17;60.65
67397;BME280;57728;50.448;18.824;2023-03-21T11:56:41;97856.25;;;11.76;61.83
67397;BME280;57728;50.448;18.824;2023-03-21T12:06:51;97824.97;;;11.38;62.96